»·PEaware :: N5603M KWVI-KPMD

N5603M :: KWVI-KPMD

FLIGHT INFORMATION

Flight Status: Arrived
Operator: Privately registered:
United States
More flights under this callsign
Pilot: Dane A. (37799)
Aircraft: BEECH AIRCRAFT DEBONAIR BONANZA
(BE33)
More flights by this aircraft type
Origin: KWVI Watsonville Mun
United States
Destination: KPMD Palmdale AF Plant 42
United States
More flights between these airports :: More routes between these airports
Route: WVI4 SNS LKHRN MBARI AVE GMN PMD
File this flight plan on PilotEdge
Remarks:
Altitude:
(Current/Filed)
9,000ft
Speed:
(Current/Filed)
150kts
Departed: 20-Aug-23 07:28 AM
Arrived: 20-Aug-23 09:08 AM
Distance/Time
Traveled:
227nm/1:40
Distance/Time
To Go:
Arrived

Flight Plot

Page will automatically refresh every two minutes.

Flight plan parsing failed; only flown route is shown


Map Options




Map Legend


Flown Route
Filed Route
Departure Airport
Arrival Airport
Navaid (VOR, NDB)
Fix

Horizontal Profiles

Position Reports

Time Latitude Longitude Heading Altitude Ground
Speed
20-Aug-23 07:11 36.935492 -121.788382 278 142ft 0kts
20-Aug-23 07:12 36.935492 -121.788382 278 142ft 0kts
20-Aug-23 07:12 36.935492 -121.788382 278 142ft 0kts
20-Aug-23 07:13 36.935492 -121.788382 278 142ft 0kts
20-Aug-23 07:14 36.935492 -121.788382 278 142ft 0kts
20-Aug-23 07:16 36.935492 -121.788382 278 142ft 0kts
20-Aug-23 07:17 36.935492 -121.788382 278 142ft 0kts
20-Aug-23 07:17 36.935492 -121.788382 278 142ft 0kts
20-Aug-23 07:18 36.935492 -121.788382 278 142ft 0kts
20-Aug-23 07:19 36.935492 -121.788382 278 142ft 0kts
20-Aug-23 07:20 36.935492 -121.788382 278 142ft 0kts
20-Aug-23 07:22 36.936741 -121.788706 279 142ft 3kts
20-Aug-23 07:22 36.936743 -121.788720 282 142ft 0kts
20-Aug-23 07:23 36.936743 -121.788721 282 142ft 0kts
20-Aug-23 07:24 36.936743 -121.788721 282 142ft 0kts
20-Aug-23 07:25 36.936743 -121.788721 282 142ft 0kts
20-Aug-23 07:26 36.936743 -121.788721 282 142ft 0kts
20-Aug-23 07:27 36.934503 -121.791466 213 142ft 65kts
20-Aug-23 07:28 36.911237 -121.811024 210 1055ft 110kts
20-Aug-23 07:29 36.878770 -121.802309 194 1686ft 144kts
20-Aug-23 07:30 36.837796 -121.806391 175 2299ft 150kts
20-Aug-23 07:31 36.797637 -121.799748 144 2991ft 139kts
20-Aug-23 07:32 36.772555 -121.764459 127 3693ft 134kts
20-Aug-23 07:33 36.748849 -121.728948 127 4383ft 131kts
20-Aug-23 07:34 36.725632 -121.694351 126 5076ft 128kts
20-Aug-23 07:35 36.703050 -121.660803 126 5764ft 124kts
20-Aug-23 07:36 36.681047 -121.628237 125 6453ft 121kts
20-Aug-23 07:37 36.659382 -121.596103 124 7144ft 119kts
20-Aug-23 07:38 36.638670 -121.564497 124 7827ft 116kts
20-Aug-23 07:39 36.618483 -121.533802 124 8480ft 114kts
20-Aug-23 07:40 36.598231 -121.503048 123 9068ft 115kts
20-Aug-23 07:41 36.577976 -121.472293 124 9656ft 114kts
20-Aug-23 07:42 36.557539 -121.441389 125 10159ft 118kts
20-Aug-23 07:43 36.536318 -121.409357 125 10655ft 121kts
20-Aug-23 07:44 36.514943 -121.376691 126 11148ft 122kts
20-Aug-23 07:45 36.491566 -121.341540 129 11274ft 144kts
20-Aug-23 07:46 36.465395 -121.302217 127 11269ft 149kts
20-Aug-23 07:47 36.444914 -121.270335 127 11289ft 149kts
20-Aug-23 07:48 36.435572 -121.256520 131 11291ft 150kts
20-Aug-23 07:49 36.415490 -121.226726 128 11299ft 150kts
20-Aug-23 07:50 36.388466 -121.186414 127 11318ft 153kts
20-Aug-23 07:51 36.361420 -121.145157 129 11267ft 154kts
20-Aug-23 07:52 36.333767 -121.104630 127 11262ft 153kts
20-Aug-23 07:53 36.306817 -121.064020 129 11270ft 151kts
20-Aug-23 07:54 36.279679 -121.024026 128 11265ft 151kts
20-Aug-23 07:55 36.252842 -120.983834 130 11266ft 151kts
20-Aug-23 07:56 36.225555 -120.944127 131 11281ft 150kts
20-Aug-23 07:57 36.199435 -120.903712 128 11277ft 151kts
20-Aug-23 07:58 36.172922 -120.863455 126 11270ft 151kts
20-Aug-23 07:59 36.145597 -120.823655 129 11274ft 151kts
20-Aug-23 08:00 36.118524 -120.783391 129 11321ft 150kts
20-Aug-23 08:01 36.093799 -120.740726 118 11274ft 155kts
20-Aug-23 08:02 36.074046 -120.693028 113 11263ft 156kts
20-Aug-23 08:03 36.055390 -120.645282 116 11301ft 155kts
20-Aug-23 08:04 36.035542 -120.598044 114 11332ft 154kts
20-Aug-23 08:05 36.012739 -120.554397 124 11426ft 151kts
20-Aug-23 08:06 35.986703 -120.512764 127 11428ft 154kts
20-Aug-23 08:07 35.960075 -120.469719 125 11299ft 159kts
20-Aug-23 08:08 35.932492 -120.427349 124 11285ft 157kts
20-Aug-23 08:09 35.905969 -120.385194 128 11286ft 155kts
20-Aug-23 08:10 35.880612 -120.344704 127 11272ft 156kts
20-Aug-23 08:11 35.853938 -120.303119 127 11321ft 154kts
20-Aug-23 08:12 35.827491 -120.261422 127 11335ft 154kts
20-Aug-23 08:13 35.800976 -120.219646 127 11354ft 154kts
20-Aug-23 08:14 35.774293 -120.177637 127 11338ft 156kts
20-Aug-23 08:15 35.747588 -120.135780 127 11358ft 155kts
20-Aug-23 08:16 35.720980 -120.094080 127 11346ft 157kts
20-Aug-23 08:17 35.694069 -120.051920 127 11344ft 156kts
20-Aug-23 08:18 35.667224 -120.009898 127 11347ft 155kts
20-Aug-23 08:19 35.640245 -119.968218 130 11335ft 156kts
20-Aug-23 08:20 35.610696 -119.929110 131 11338ft 155kts
20-Aug-23 08:21 35.581522 -119.890211 131 11356ft 155kts
20-Aug-23 08:22 35.552397 -119.851081 131 11356ft 155kts
20-Aug-23 08:23 35.523109 -119.811765 131 11357ft 155kts
20-Aug-23 08:24 35.494007 -119.772680 131 11357ft 155kts
20-Aug-23 08:25 35.464775 -119.733649 131 11345ft 155kts
20-Aug-23 08:26 35.435684 -119.694755 131 11358ft 154kts
20-Aug-23 08:27 35.406703 -119.656123 131 11344ft 153kts
20-Aug-23 08:28 35.377905 -119.617658 131 11341ft 153kts
20-Aug-23 08:29 35.349138 -119.579232 131 11338ft 152kts
20-Aug-23 08:30 35.320562 -119.541231 130 11342ft 151kts
20-Aug-23 08:31 35.292059 -119.503377 132 11342ft 151kts
20-Aug-23 08:32 35.264010 -119.464924 131 11358ft 151kts
20-Aug-23 08:33 35.234922 -119.427680 130 11356ft 151kts
20-Aug-23 08:34 35.206373 -119.389558 131 11362ft 151kts
20-Aug-23 08:35 35.178087 -119.351497 131 11360ft 151kts
20-Aug-23 08:36 35.149303 -119.314063 132 11361ft 151kts
20-Aug-23 08:37 35.120773 -119.276361 134 11359ft 150kts
20-Aug-23 08:38 35.092720 -119.238664 133 11362ft 149kts
20-Aug-23 08:39 35.064237 -119.201459 133 11350ft 150kts
20-Aug-23 08:40 35.035706 -119.164175 134 11357ft 149kts
20-Aug-23 08:41 35.007705 -119.126668 133 11342ft 149kts
20-Aug-23 08:42 34.979127 -119.090345 132 11370ft 147kts
20-Aug-23 08:43 34.951321 -119.054387 132 11438ft 145kts
20-Aug-23 08:44 34.923713 -119.017599 130 11363ft 151kts
20-Aug-23 08:45 34.895096 -118.979836 134 11322ft 151kts
20-Aug-23 08:46 34.866571 -118.942576 132 11350ft 148kts
20-Aug-23 08:47 34.838509 -118.906025 132 11359ft 147kts
20-Aug-23 08:48 34.810285 -118.869240 132 11317ft 149kts
20-Aug-23 08:49 34.794398 -118.819655 105 10705ft 168kts
20-Aug-23 08:50 34.782412 -118.763918 104 10006ft 170kts
20-Aug-23 08:51 34.770885 -118.708441 103 9328ft 167kts
20-Aug-23 08:52 34.759639 -118.654555 101 8581ft 162kts
20-Aug-23 08:53 34.748401 -118.602348 105 7944ft 158kts
20-Aug-23 08:54 34.727554 -118.554510 115 7426ft 161kts
20-Aug-23 08:55 34.707596 -118.509910 112 7094ft 131kts
20-Aug-23 08:56 34.689867 -118.469713 116 7127ft 143kts
20-Aug-23 08:57 34.670291 -118.427007 115 7156ft 143kts
20-Aug-23 08:58 34.652040 -118.384310 103 7042ft 143kts
20-Aug-23 08:59 34.642651 -118.339077 103 6681ft 143kts
20-Aug-23 09:00 34.634620 -118.299320 101 6128ft 100kts
20-Aug-23 09:01 34.628748 -118.266893 85 5464ft 95kts
20-Aug-23 09:02 34.628964 -118.235001 80 4826ft 92kts
20-Aug-23 09:03 34.629177 -118.204117 83 4146ft 91kts
20-Aug-23 09:04 34.629605 -118.173303 88 3497ft 94kts
20-Aug-23 09:05 34.630700 -118.144039 72 3084ft 87kts
20-Aug-23 09:06 34.630437 -118.114959 80 2647ft 81kts
20-Aug-23 09:07 34.631486 -118.095827 81 2518ft 30kts
20-Aug-23 09:08 34.632482 -118.089687 66 2518ft 9kts

Navigation Log

Ident Type
Flight plan parsing failed, navigation log unavailable